createdAt,value
2018-08-09T00:00:24.393Z,69.00
2018-08-09T00:02:52.094Z,68.60
2018-08-09T00:05:19.782Z,69.50
2018-08-09T00:07:47.506Z,68.80
2018-08-09T00:10:15.179Z,70.10
2018-08-09T00:12:42.999Z,70.90
2018-08-09T00:15:10.710Z,69.70
2018-08-09T00:17:38.395Z,69.60
2018-08-09T00:20:06.062Z,70.70
2018-08-09T00:22:33.810Z,69.80
2018-08-09T00:25:01.483Z,71.50
2018-08-09T00:27:29.217Z,71.40
2018-08-09T00:29:56.939Z,69.90
2018-08-09T00:32:24.699Z,69.90
2018-08-09T00:34:52.420Z,70.40
2018-08-09T00:37:20.174Z,69.60
2018-08-09T00:39:47.891Z,65.60
2018-08-09T00:42:15.583Z,66.70
2018-08-09T00:44:43.420Z,66.80
2018-08-09T00:47:11.234Z,67.00
2018-08-09T00:49:38.999Z,64.70
2018-08-09T00:52:06.908Z,65.20
2018-08-09T00:54:34.653Z,65.00
2018-08-09T00:57:02.423Z,64.00
2018-08-09T00:59:30.175Z,63.80
2018-08-09T01:01:57.906Z,62.30
2018-08-09T01:04:25.824Z,63.00
2018-08-09T01:06:53.563Z,62.80
2018-08-09T01:09:21.333Z,61.80
2018-08-09T01:11:49.096Z,61.00
2018-08-09T01:14:17.064Z,61.60
2018-08-09T01:16:44.858Z,61.40
2018-08-09T01:19:12.644Z,60.80
2018-08-09T01:21:40.423Z,61.20
2018-08-09T01:24:08.153Z,62.40
2018-08-09T01:26:35.895Z,60.10
2018-08-09T01:29:03.696Z,60.30
2018-08-09T01:31:33.764Z,60.00
2018-08-09T01:34:02.823Z,60.20
2018-08-09T01:36:30.562Z,61.60
2018-08-09T01:38:58.370Z,63.10
2018-08-09T01:41:26.455Z,62.80
2018-08-09T01:43:59.498Z,62.00
2018-08-09T01:46:27.647Z,62.20
2018-08-09T01:48:55.971Z,63.20
2018-08-09T01:51:24.097Z,63.50
2018-08-09T01:53:52.446Z,62.60
2018-08-09T01:56:20.247Z,62.70
2018-08-09T01:58:48.700Z,62.40
2018-08-09T02:01:16.519Z,63.80
2018-08-09T02:03:44.859Z,64.00
2018-08-09T02:06:13.347Z,63.50
2018-08-09T02:08:41.036Z,64.50
2018-08-09T02:11:09.825Z,65.90
2018-08-09T02:13:37.611Z,66.30
2018-08-09T02:16:05.579Z,67.50
2018-08-09T02:18:33.323Z,67.40
2018-08-09T02:21:01.111Z,66.70
2018-08-09T02:23:28.835Z,63.70
2018-08-09T02:25:56.598Z,60.90
2018-08-09T02:28:24.347Z,61.40
2018-08-09T02:30:52.113Z,62.70
2018-08-09T02:33:19.829Z,62.20
2018-08-09T02:35:47.575Z,62.10
2018-08-09T02:38:15.322Z,62.10
2018-08-09T02:40:43.031Z,61.10
2018-08-09T02:43:10.739Z,62.20
2018-08-09T02:45:38.477Z,63.20
2018-08-09T02:48:06.273Z,62.60
2018-08-09T02:50:34.023Z,62.00
2018-08-09T02:53:01.779Z,63.90
2018-08-09T02:55:29.547Z,65.10
2018-08-09T02:57:57.264Z,65.10
2018-08-09T03:00:24.954Z,65.50
2018-08-09T03:02:52.683Z,66.40
2018-08-09T03:05:20.476Z,66.90
2018-08-09T03:07:48.251Z,67.30
2018-08-09T03:10:16.027Z,67.50
2018-08-09T03:12:43.795Z,66.60
2018-08-09T03:15:11.519Z,66.60
2018-08-09T03:17:39.283Z,65.90
2018-08-09T03:20:07.074Z,63.90
2018-08-09T03:22:34.863Z,63.30
2018-08-09T03:25:02.661Z,63.70
2018-08-09T03:27:30.403Z,63.60
2018-08-09T03:29:58.168Z,60.80
2018-08-09T03:32:25.926Z,60.60
2018-08-09T03:34:53.660Z,59.00
2018-08-09T03:37:21.419Z,58.50
2018-08-09T03:39:49.170Z,57.00
2018-08-09T03:42:16.879Z,56.30
2018-08-09T03:44:44.603Z,56.00
2018-08-09T03:47:12.307Z,55.70
2018-08-09T03:49:40.044Z,55.80
2018-08-09T03:52:07.841Z,56.00
2018-08-09T03:54:35.559Z,56.00
2018-08-09T03:57:03.306Z,56.50
2018-08-09T03:59:31.031Z,55.40
2018-08-09T04:01:58.751Z,55.70
2018-08-09T04:04:26.469Z,55.10
2018-08-09T04:06:54.219Z,56.60
2018-08-09T04:09:21.925Z,56.80
2018-08-09T04:11:49.709Z,57.80
2018-08-09T04:14:17.435Z,58.70
2018-08-09T04:16:45.212Z,57.20
2018-08-09T04:19:12.915Z,60.00
2018-08-09T04:21:40.733Z,59.40
2018-08-09T04:24:08.447Z,59.90
2018-08-09T04:26:36.165Z,58.20
2018-08-09T04:29:03.983Z,57.80
2018-08-09T04:31:31.711Z,58.20
2018-08-09T04:33:59.477Z,57.80
2018-08-09T04:36:27.292Z,57.70
2018-08-09T04:38:55.068Z,59.40
2018-08-09T04:41:22.791Z,58.70
2018-08-09T04:43:50.582Z,59.70
2018-08-09T04:46:18.336Z,57.50
2018-08-09T04:48:46.075Z,57.60
2018-08-09T04:51:13.835Z,57.20
2018-08-09T04:53:41.578Z,56.90
2018-08-09T04:56:09.288Z,57.30
2018-08-09T04:58:37.055Z,57.70
2018-08-09T05:01:04.791Z,56.60
2018-08-09T05:03:32.561Z,57.30
2018-08-09T05:06:00.276Z,58.00
2018-08-09T05:08:28.056Z,57.80
2018-08-09T05:10:55.795Z,58.80
2018-08-09T05:13:23.543Z,60.70
2018-08-09T05:15:51.282Z,61.30
2018-08-09T05:18:19.103Z,62.00
2018-08-09T05:20:46.829Z,63.70
2018-08-09T05:23:14.713Z,63.80
2018-08-09T05:25:42.330Z,63.80
2018-08-09T05:28:10.080Z,60.00
2018-08-09T05:30:37.868Z,59.00
2018-08-09T05:33:05.677Z,58.00
2018-08-09T05:35:33.428Z,57.70
2018-08-09T05:38:01.157Z,58.40
2018-08-09T05:40:28.926Z,58.40
2018-08-09T05:42:56.672Z,58.60
2018-08-09T05:45:24.443Z,60.10
2018-08-09T05:47:52.183Z,58.30
2018-08-09T05:50:19.932Z,58.00
2018-08-09T05:52:47.719Z,55.60
2018-08-09T05:55:15.427Z,54.30
2018-08-09T05:57:43.178Z,53.50
2018-08-09T06:00:11.888Z,52.80
2018-08-09T06:02:39.671Z,52.10
2018-08-09T06:05:07.733Z,51.20
2018-08-09T06:07:35.518Z,51.40
2018-08-09T06:10:04.105Z,51.20
2018-08-09T06:12:32.554Z,51.70
2018-08-09T06:15:00.307Z,51.50
2018-08-09T06:17:28.061Z,51.30
2018-08-09T06:19:55.798Z,51.60
2018-08-09T06:22:23.571Z,50.70
2018-08-09T06:24:51.286Z,51.50
2018-08-09T06:27:19.052Z,52.20
2018-08-09T06:29:46.820Z,52.40
2018-08-09T06:32:14.695Z,52.70
2018-08-09T06:34:42.450Z,52.00
2018-08-09T06:37:10.250Z,51.80
2018-08-09T06:39:38.088Z,52.10
2018-08-09T06:42:05.951Z,51.70
2018-08-09T06:44:33.715Z,52.90
2018-08-09T06:47:01.449Z,51.70
2018-08-09T06:49:29.210Z,52.00
2018-08-09T06:51:56.982Z,52.00
2018-08-09T06:54:24.778Z,51.80
2018-08-09T06:56:52.539Z,51.20
2018-08-09T06:59:20.312Z,51.60
2018-08-09T07:01:48.079Z,50.80
2018-08-09T07:04:15.872Z,50.00
2018-08-09T07:06:43.605Z,50.30
2018-08-09T07:09:11.454Z,49.20
2018-08-09T07:11:39.571Z,48.60
2018-08-09T07:14:07.480Z,48.90
2018-08-09T07:16:35.296Z,48.40
2018-08-09T07:19:03.115Z,48.10
2018-08-09T07:21:30.866Z,48.00
2018-08-09T07:23:58.607Z,47.60
2018-08-09T07:26:26.412Z,48.40
2018-08-09T07:28:54.140Z,48.10
2018-08-09T07:31:22.360Z,47.70
2018-08-09T07:33:50.101Z,47.60
2018-08-09T07:36:17.794Z,47.90
2018-08-09T07:38:45.522Z,49.60
2018-08-09T07:41:13.263Z,48.00
2018-08-09T07:43:40.958Z,47.80
2018-08-09T07:46:09.268Z,48.20
2018-08-09T07:48:37.033Z,48.60
2018-08-09T07:51:04.956Z,48.50
2018-08-09T07:53:32.666Z,48.90
2018-08-09T07:56:00.447Z,49.60
2018-08-09T07:58:28.234Z,50.10
2018-08-09T08:00:56.172Z,51.20
2018-08-09T08:03:23.891Z,51.20
2018-08-09T08:05:51.763Z,49.40
2018-08-09T08:08:19.495Z,48.50
2018-08-09T08:10:48.539Z,46.60
2018-08-09T08:13:17.300Z,44.70
2018-08-09T08:15:45.028Z,44.50
2018-08-09T08:18:12.795Z,44.90
2018-08-09T08:20:40.570Z,43.30
2018-08-09T08:23:08.350Z,42.10
2018-08-09T08:25:36.095Z,41.70
2018-08-09T08:28:03.888Z,42.00
2018-08-09T08:30:31.616Z,39.20
2018-08-09T08:32:59.295Z,36.70
2018-08-09T08:35:26.998Z,33.50
2018-08-09T08:37:54.740Z,31.20
2018-08-09T08:40:22.432Z,30.10
2018-08-09T08:42:50.167Z,29.90
2018-08-09T08:45:17.902Z,33.40
2018-08-09T08:47:45.642Z,35.60
2018-08-09T08:50:13.391Z,37.90
2018-08-09T08:52:41.323Z,36.70
2018-08-09T08:55:10.550Z,37.50
2018-08-09T08:57:38.286Z,38.80
2018-08-09T09:00:07.599Z,40.00
2018-08-09T09:02:35.750Z,42.00
2018-08-09T09:05:04.330Z,42.50
2018-08-09T09:07:32.067Z,43.30
2018-08-09T09:09:59.767Z,42.60
2018-08-09T09:12:27.458Z,42.60
2018-08-09T09:14:55.213Z,40.10
2018-08-09T09:17:22.907Z,40.20
2018-08-09T09:19:50.617Z,39.70
2018-08-09T09:22:18.343Z,38.90
2018-08-09T09:24:46.062Z,39.20
2018-08-09T09:29:40.963Z,37.30
2018-08-09T09:32:08.654Z,37.70
2018-08-09T09:34:36.402Z,37.70
2018-08-09T09:37:04.126Z,33.90
2018-08-09T09:39:31.837Z,30.70
2018-08-09T09:41:59.551Z,28.60
2018-08-09T09:44:27.293Z,26.90
2018-08-09T09:46:54.993Z,26.40
2018-08-09T09:49:22.675Z,25.30
2018-08-09T09:51:50.383Z,24.90
2018-08-09T09:54:18.146Z,24.60
2018-08-09T09:56:46.198Z,23.50
2018-08-09T09:59:13.878Z,22.50
2018-08-09T10:01:41.639Z,22.60
2018-08-09T10:04:09.307Z,22.20
2018-08-09T10:06:37.111Z,21.00
2018-08-09T10:09:08.679Z,21.00
2018-08-09T10:11:36.446Z,20.80
2018-08-09T10:14:04.214Z,22.70
2018-08-09T10:16:31.898Z,23.10
2018-08-09T10:18:59.615Z,22.50
2018-08-09T10:21:27.318Z,21.10
2018-08-09T10:23:55.026Z,20.90
2018-08-09T10:26:22.688Z,22.40
2018-08-09T10:28:50.354Z,26.00
2018-08-09T10:31:18.023Z,28.50
2018-08-09T10:33:45.718Z,28.90
2018-08-09T10:36:13.392Z,29.10
2018-08-09T10:38:41.107Z,30.30
2018-08-09T10:41:09.259Z,30.00
2018-08-09T10:43:36.979Z,31.30
2018-08-09T10:46:04.671Z,30.80
2018-08-09T10:48:32.345Z,31.80
2018-08-09T10:51:00.084Z,34.30
2018-08-09T10:53:27.786Z,34.40
2018-08-09T10:55:55.474Z,34.20
2018-08-09T10:58:23.202Z,33.30
2018-08-09T11:00:50.876Z,33.00
2018-08-09T11:03:18.564Z,31.10
2018-08-09T11:05:46.898Z,30.10
2018-08-09T11:08:14.558Z,28.20
2018-08-09T11:10:42.256Z,28.40
2018-08-09T11:13:09.938Z,28.10
2018-08-09T11:15:37.644Z,27.30
2018-08-09T11:18:05.359Z,27.70
2018-08-09T11:20:33.250Z,29.00
2018-08-09T11:23:01.024Z,30.90
2018-08-09T11:25:28.713Z,30.40
2018-08-09T11:27:56.436Z,30.00
2018-08-09T11:30:24.098Z,28.80
2018-08-09T11:32:51.810Z,28.60
2018-08-09T11:35:19.486Z,28.40
2018-08-09T11:37:47.215Z,28.30
2018-08-09T11:40:14.934Z,28.50
2018-08-09T11:42:42.660Z,28.40
2018-08-09T11:45:10.465Z,28.40
2018-08-09T11:47:38.170Z,29.10
2018-08-09T11:50:06.261Z,29.70
2018-08-09T11:52:34.056Z,29.10
2018-08-09T11:55:01.876Z,29.30
2018-08-09T11:57:29.639Z,29.80
2018-08-09T11:59:57.375Z,30.50
2018-08-09T12:02:25.087Z,30.50
2018-08-09T12:04:52.848Z,31.40
2018-08-09T12:07:20.595Z,31.80
2018-08-09T12:09:48.349Z,32.00
2018-08-09T12:12:16.157Z,32.30
2018-08-09T12:14:44.067Z,32.10
2018-08-09T12:17:11.815Z,32.10
2018-08-09T12:19:39.681Z,32.20
2018-08-09T12:22:07.550Z,33.10
2018-08-09T12:24:35.408Z,33.40
2018-08-09T12:27:03.259Z,33.50
2018-08-09T12:29:31.073Z,33.50
2018-08-09T12:31:58.876Z,33.80
2018-08-09T12:34:26.606Z,33.90
2018-08-09T12:36:54.431Z,34.20
2018-08-09T12:39:22.164Z,34.20
2018-08-09T12:41:50.044Z,34.20
2018-08-09T12:44:17.837Z,34.50
2018-08-09T12:46:45.661Z,34.70
2018-08-09T12:49:13.437Z,36.00
2018-08-09T12:51:41.277Z,35.40
2018-08-09T12:54:09.095Z,34.70
2018-08-09T12:56:36.928Z,35.60
2018-08-09T12:59:04.768Z,34.80
2018-08-09T13:01:32.611Z,34.70
2018-08-09T13:04:00.373Z,34.80
2018-08-09T13:06:28.138Z,35.30
2018-08-09T13:08:56.031Z,34.10
2018-08-09T13:11:23.856Z,34.70
2018-08-09T13:13:51.735Z,35.30
2018-08-09T13:16:19.555Z,36.70
2018-08-09T13:18:47.419Z,38.90
2018-08-09T13:21:15.879Z,42.90
2018-08-09T13:23:43.731Z,48.20
2018-08-09T13:26:11.534Z,52.60
2018-08-09T13:28:39.420Z,56.70
2018-08-09T13:31:07.223Z,58.20
2018-08-09T13:33:35.115Z,60.00
2018-08-09T13:36:02.967Z,61.60
2018-08-09T13:38:30.852Z,63.70
2018-08-09T13:40:58.677Z,64.10
2018-08-09T13:43:26.495Z,66.00
2018-08-09T13:45:54.301Z,66.00
2018-08-09T13:48:22.076Z,66.70
2018-08-09T13:50:50.837Z,67.20
2018-08-09T13:53:18.626Z,67.90
2018-08-09T13:55:46.436Z,67.70
2018-08-09T13:58:14.208Z,67.90
2018-08-09T14:00:42.029Z,67.40
2018-08-09T14:03:09.809Z,67.60
2018-08-09T14:05:37.612Z,68.60
2018-08-09T14:08:05.579Z,67.50
2018-08-09T14:10:54.061Z,69.00
2018-08-09T14:13:21.853Z,68.60
2018-08-09T14:15:49.724Z,67.00
2018-08-09T14:18:17.533Z,67.10
2018-08-09T14:20:45.320Z,65.60
2018-08-09T14:23:13.166Z,64.50
2018-08-09T14:25:41.027Z,63.00
2018-08-09T14:28:08.772Z,61.80
2018-08-09T14:30:36.582Z,61.30
2018-08-09T14:33:04.686Z,58.80
2018-08-09T14:35:32.507Z,58.60
2018-08-09T14:38:00.395Z,58.60
2018-08-09T14:40:28.222Z,57.90
2018-08-09T14:42:56.072Z,58.00
2018-08-09T14:45:23.976Z,57.80
2018-08-09T14:47:51.920Z,58.80
2018-08-09T14:50:19.715Z,60.20
2018-08-09T14:52:47.539Z,60.50
2018-08-09T14:55:15.434Z,61.10
2018-08-09T14:57:43.277Z,61.60
2018-08-09T15:00:14.959Z,61.80
2018-08-09T15:02:43.408Z,61.90
2018-08-09T15:05:11.270Z,64.20
2018-08-09T15:07:39.119Z,66.10
2018-08-09T15:10:07.254Z,67.20
2018-08-09T15:12:35.095Z,66.60
2018-08-09T15:15:02.979Z,67.20
2018-08-09T15:17:30.836Z,67.60
2018-08-09T15:19:58.860Z,67.60
2018-08-09T15:22:26.682Z,67.60
2018-08-09T15:24:54.479Z,66.20
2018-08-09T15:27:22.323Z,65.10
2018-08-09T15:29:50.064Z,64.90
2018-08-09T15:32:17.836Z,64.20
2018-08-09T15:34:45.716Z,64.20
2018-08-09T15:37:13.575Z,63.00
2018-08-09T15:39:41.387Z,64.10
2018-08-09T15:42:09.172Z,62.90
2018-08-09T15:44:37.009Z,63.40
2018-08-09T15:47:04.805Z,61.60
2018-08-09T15:49:32.715Z,62.00
2018-08-09T15:52:00.535Z,63.40
2018-08-09T15:54:28.350Z,66.30
2018-08-09T15:56:56.161Z,67.70
2018-08-09T15:59:23.957Z,68.80
2018-08-09T16:01:51.911Z,69.80
2018-08-09T16:04:19.776Z,70.90
2018-08-09T16:06:47.648Z,71.60
2018-08-09T16:09:16.944Z,72.50
2018-08-09T16:11:44.999Z,73.30
2018-08-09T16:14:12.945Z,73.90
2018-08-09T16:16:40.767Z,74.20
2018-08-09T16:19:09.023Z,73.80
2018-08-09T16:21:36.852Z,73.80
2018-08-09T16:24:05.135Z,72.80
2018-08-09T16:26:33.355Z,72.60
2018-08-09T16:29:01.190Z,71.80
2018-08-09T16:31:28.976Z,70.60
2018-08-09T16:33:56.916Z,70.50
2018-08-09T16:36:24.776Z,70.50
2018-08-09T16:38:53.020Z,69.70
2018-08-09T16:41:20.963Z,69.90
2018-08-09T16:43:48.791Z,70.50
2018-08-09T16:46:16.707Z,69.70
2018-08-09T16:48:44.536Z,70.20
2018-08-09T16:51:12.867Z,71.30
2018-08-09T16:53:40.686Z,72.10
2018-08-09T16:56:08.535Z,73.00
2018-08-09T16:58:36.392Z,73.90
2018-08-09T17:01:04.197Z,73.80
2018-08-09T17:03:31.984Z,70.50
2018-08-09T17:05:59.879Z,64.70
2018-08-09T17:08:27.639Z,60.70
2018-08-09T17:10:55.539Z,52.50
2018-08-09T17:13:23.319Z,49.60
2018-08-09T17:15:51.230Z,49.30
2018-08-09T17:18:19.279Z,48.10
2018-08-09T17:20:47.188Z,47.10
2018-08-09T17:23:14.979Z,47.40
2018-08-09T17:25:42.794Z,47.40
2018-08-09T17:28:10.603Z,47.40
2018-08-09T17:30:38.520Z,46.90
2018-08-09T17:33:06.360Z,46.80
2018-08-09T17:35:34.202Z,47.70
2018-08-09T17:38:01.963Z,48.20
2018-08-09T17:40:31.613Z,48.20
2018-08-09T17:43:00.214Z,48.00
2018-08-09T17:45:30.312Z,48.00
2018-08-09T17:47:58.544Z,47.40
2018-08-09T17:50:26.394Z,47.10
2018-08-09T17:52:55.849Z,47.10
2018-08-09T17:55:23.606Z,47.90
2018-08-09T17:57:51.523Z,47.90
2018-08-09T18:00:21.900Z,48.40
2018-08-09T18:02:50.112Z,49.00
2018-08-09T18:05:17.996Z,49.30
2018-08-09T18:07:45.909Z,49.20
2018-08-09T18:10:17.535Z,50.40
2018-08-09T18:12:45.991Z,52.00
2018-08-09T18:15:13.896Z,51.90
2018-08-09T18:17:41.828Z,53.20
2018-08-09T18:20:12.152Z,53.60
2018-08-09T18:22:40.220Z,54.80
2018-08-09T18:25:10.065Z,54.50
2018-08-09T18:27:38.003Z,54.50
2018-08-09T18:30:09.222Z,55.10
2018-08-09T18:32:37.408Z,55.50
2018-08-09T18:35:06.087Z,55.90
2018-08-09T18:37:33.856Z,55.70
2018-08-09T18:40:01.785Z,57.50
2018-08-09T18:42:29.704Z,58.00
2018-08-09T18:44:57.552Z,57.80
2018-08-09T18:47:25.466Z,59.50
2018-08-09T18:49:53.292Z,59.90
2018-08-09T18:52:21.099Z,62.00
2018-08-09T18:54:48.936Z,63.50
2018-08-09T18:57:16.691Z,64.40
2018-08-09T18:59:44.462Z,65.10
2018-08-09T19:02:12.210Z,66.20
2018-08-09T19:04:40.079Z,66.50
2018-08-09T19:07:07.911Z,67.00
2018-08-09T19:09:35.803Z,67.60
2018-08-09T19:12:03.695Z,68.30
2018-08-09T19:14:32.283Z,68.30
2018-08-09T19:17:00.174Z,68.10
2018-08-09T19:19:28.036Z,67.30
2018-08-09T19:21:55.937Z,67.50
2018-08-09T19:24:23.859Z,67.20
2018-08-09T19:26:52.102Z,66.00
2018-08-09T19:29:19.906Z,64.10
2018-08-09T19:31:47.767Z,63.70
2018-08-09T19:34:15.667Z,63.00
2018-08-09T19:36:43.552Z,62.20
2018-08-09T19:39:13.245Z,61.10
2018-08-09T19:41:41.915Z,60.40
2018-08-09T19:44:09.825Z,59.50
2018-08-09T19:46:37.686Z,59.80
2018-08-09T19:49:05.549Z,59.70
2018-08-09T19:51:33.446Z,59.70
2018-08-09T19:54:01.295Z,59.00
2018-08-09T19:56:29.107Z,59.50
2018-08-09T19:58:56.950Z,59.70
2018-08-09T20:01:24.846Z,59.50
2018-08-09T20:03:52.680Z,59.20
2018-08-09T20:06:20.493Z,59.50
2018-08-09T20:08:48.317Z,59.00
2018-08-09T20:11:16.103Z,59.40
2018-08-09T20:13:43.931Z,59.30
2018-08-09T20:16:11.765Z,59.30
2018-08-09T20:18:39.612Z,59.70
2018-08-09T20:21:07.522Z,59.80
2018-08-09T20:23:35.325Z,59.50
2018-08-09T20:26:03.292Z,59.80
2018-08-09T20:28:31.118Z,60.90
2018-08-09T20:30:59.016Z,60.80
2018-08-09T20:33:26.812Z,61.30
2018-08-09T20:35:54.659Z,61.90
2018-08-09T20:38:22.421Z,62.00
2018-08-09T20:40:50.301Z,61.90
2018-08-09T20:43:18.069Z,62.80
2018-08-09T20:45:45.892Z,63.20
2018-08-09T20:48:13.677Z,64.20
2018-08-09T20:50:41.428Z,65.00
2018-08-09T20:53:09.311Z,65.20
2018-08-09T20:55:37.208Z,65.30
2018-08-09T20:58:05.116Z,65.20
2018-08-09T21:00:34.327Z,63.40
2018-08-09T21:03:02.521Z,62.80
2018-08-09T21:05:33.675Z,61.80
2018-08-09T21:08:01.612Z,60.90
2018-08-09T21:10:29.704Z,62.00
2018-08-09T21:12:57.780Z,63.10
2018-08-09T21:15:25.783Z,63.90
2018-08-09T21:17:53.643Z,63.60
2018-08-09T21:20:21.632Z,64.40
2018-08-09T21:22:49.986Z,63.10
2018-08-09T21:25:17.989Z,64.50
2018-08-09T21:27:46.495Z,65.20
2018-08-09T21:30:16.349Z,65.10
2018-08-09T21:32:44.786Z,66.20
2018-08-09T21:35:12.692Z,66.10
2018-08-09T21:37:41.215Z,65.80
2018-08-09T21:40:10.338Z,66.60
2018-08-09T21:42:38.110Z,64.60
2018-08-09T21:45:08.087Z,64.60
2018-08-09T21:47:36.073Z,64.60
2018-08-09T21:50:05.563Z,63.90
2018-08-09T21:52:33.342Z,63.30
2018-08-09T21:55:01.075Z,63.40
2018-08-09T21:57:28.836Z,62.80
2018-08-09T21:59:56.616Z,63.40
2018-08-09T22:02:24.433Z,63.10
2018-08-09T22:04:57.899Z,63.70
2018-08-09T22:07:31.294Z,63.60
2018-08-09T22:10:04.784Z,63.50
2018-08-09T22:12:38.224Z,63.70
2018-08-09T22:15:11.609Z,63.90
2018-08-09T22:17:45.003Z,64.80
2018-08-09T22:20:18.287Z,65.30
2018-08-09T22:22:46.144Z,66.30
2018-08-09T22:25:13.919Z,66.80
2018-08-09T22:27:41.669Z,67.20
2018-08-09T22:30:13.127Z,67.20
2018-08-09T22:32:40.856Z,66.70
2018-08-09T22:35:08.663Z,67.90
2018-08-09T22:37:36.406Z,67.10
2018-08-09T22:40:04.319Z,68.00
2018-08-09T22:42:32.034Z,67.70
2018-08-09T22:44:59.751Z,68.70
2018-08-09T22:47:27.491Z,67.20
2018-08-09T22:49:55.287Z,68.10
2018-08-09T22:52:22.980Z,67.60
2018-08-09T22:54:50.740Z,67.70
2018-08-09T22:57:18.520Z,67.90
2018-08-09T22:59:46.278Z,67.10
2018-08-09T23:02:14.014Z,67.70
2018-08-09T23:04:41.817Z,67.00
2018-08-09T23:07:09.507Z,67.60
2018-08-09T23:09:37.363Z,68.00
2018-08-09T23:12:05.261Z,68.10
2018-08-09T23:14:33.090Z,68.00
2018-08-09T23:17:00.875Z,68.80
2018-08-09T23:19:28.659Z,69.00
2018-08-09T23:21:56.421Z,70.10
2018-08-09T23:24:24.172Z,70.80
2018-08-09T23:26:51.927Z,72.60
2018-08-09T23:29:19.682Z,77.90
2018-08-09T23:31:47.448Z,90.10
2018-08-09T23:34:15.314Z,95.50
2018-08-09T23:36:43.035Z,99.50
2018-08-09T23:39:12.177Z,99.90
2018-08-09T23:41:40.154Z,99.90
2018-08-09T23:44:07.883Z,99.90
2018-08-09T23:46:35.696Z,99.90
2018-08-09T23:49:03.476Z,99.90
2018-08-09T23:51:31.259Z,99.90
2018-08-09T23:53:59.059Z,99.90
2018-08-09T23:56:26.846Z,99.90
2018-08-09T23:58:54.595Z,99.90
